sensor_id;sensor_type;location;lat;lon;timestamp;P1;P2;P0
77516;PMS7003;68414;53.946;27.634;2023-04-08T13:03:21;18.200001;18.200001;12.500000
77516;PMS7003;68414;53.946;27.634;2023-04-08T13:04:21;23.950001;22.933332;15.483334
77516;PMS7003;68414;53.946;27.634;2023-04-08T13:05:21;24.049999;23.333334;16.083334
77516;PMS7003;68414;53.946;27.634;2023-04-08T13:06:21;25.666666;24.250000;16.583334
77516;PMS7003;68414;53.946;27.634;2023-04-08T13:07:21;25.633333;25.183332;17.150000
77516;PMS7003;68414;53.946;27.634;2023-04-08T13:08:21;22.400000;22.066668;15.850000
77516;PMS7003;68414;53.946;27.634;2023-04-08T13:09:21;25.850000;24.150000;16.816668
77516;PMS7003;68414;53.946;27.634;2023-04-08T13:10:21;21.600000;21.233334;14.800000
77516;PMS7003;68414;53.946;27.634;2023-04-08T13:11:21;26.049999;24.666666;16.283333
77516;PMS7003;68414;53.946;27.634;2023-04-08T13:12:21;24.900000;24.616667;16.716667
77516;PMS7003;68414;53.946;27.634;2023-04-08T13:13:21;25.666666;24.700001;17.316668
77516;PMS7003;68414;53.946;27.634;2023-04-08T13:14:21;24.850000;22.549999;16.483334
77516;PMS7003;68414;53.946;27.634;2023-04-08T13:15:21;22.166666;21.283333;14.383333
77516;PMS7003;68414;53.946;27.634;2023-04-08T13:16:21;22.633333;21.666666;14.533334
77516;PMS7003;68414;53.946;27.634;2023-04-08T13:17:21;24.000000;22.866667;15.333333
77516;PMS7003;68414;53.946;27.634;2023-04-08T13:18:21;23.716667;21.933332;15.266666
77516;PMS7003;68414;53.946;27.634;2023-04-08T13:19:21;21.816668;20.933332;14.633333
77516;PMS7003;68414;53.946;27.634;2023-04-08T13:20:21;23.133333;21.933332;15.733334
77516;PMS7003;68414;53.946;27.634;2023-04-08T13:21:21;21.816668;20.716667;15.316667
77516;PMS7003;68414;53.946;27.634;2023-04-08T13:22:21;24.966667;23.916666;15.916667
77516;PMS7003;68414;53.946;27.634;2023-04-08T13:23:21;24.316668;22.866667;15.266666
77516;PMS7003;68414;53.946;27.634;2023-04-08T13:24:21;22.983334;21.633333;14.966666
77516;PMS7003;68414;53.946;27.634;2023-04-08T13:25:21;19.533333;18.400000;13.633333
77516;PMS7003;68414;53.946;27.634;2023-04-08T13:26:21;21.616667;19.733334;13.716666
77516;PMS7003;68414;53.946;27.634;2023-04-08T13:27:21;18.866667;17.150000;12.583333
77516;PMS7003;68414;53.946;27.634;2023-04-08T13:28:21;20.783333;19.133333;13.833333
77516;PMS7003;68414;53.946;27.634;2023-04-08T13:29:21;19.516666;18.500000;12.916667
77516;PMS7003;68414;53.946;27.634;2023-04-08T13:30:21;18.233334;16.983334;11.866667
77516;PMS7003;68414;53.946;27.634;2023-04-08T13:31:21;17.683332;17.116667;12.100000
77516;PMS7003;68414;53.946;27.634;2023-04-08T13:32:21;17.766666;16.799999;12.083333
77516;PMS7003;68414;53.946;27.634;2023-04-08T13:33:21;16.083334;15.600000;11.400000
77516;PMS7003;68414;53.946;27.634;2023-04-08T13:34:21;17.299999;15.933333;11.416667
77516;PMS7003;68414;53.946;27.634;2023-04-08T13:35:21;17.766666;17.166666;11.383333
77516;PMS7003;68414;53.946;27.634;2023-04-08T13:36:21;15.366667;14.816667;10.833333
77516;PMS7003;68414;53.946;27.634;2023-04-08T13:37:21;16.000000;15.250000;10.383333
77516;PMS7003;68414;53.946;27.634;2023-04-08T13:38:21;17.700001;14.483334;9.933333
77516;PMS7003;68414;53.946;27.634;2023-04-08T13:39:21;15.483334;14.416667;10.216666
77516;PMS7003;68414;53.946;27.634;2023-04-08T13:40:21;14.433333;14.216666;10.633333
77516;PMS7003;68414;53.946;27.634;2023-04-08T13:41:21;14.216666;13.233334;10.200000
77516;PMS7003;68414;53.946;27.634;2023-04-08T13:42:21;15.183333;14.700000;10.066667
77516;PMS7003;68414;53.946;27.634;2023-04-08T13:43:21;14.483334;12.766666;10.050000
77516;PMS7003;68414;53.946;27.634;2023-04-08T13:44:21;13.816667;13.816667;9.966666
77516;PMS7003;68414;53.946;27.634;2023-04-08T13:45:21;14.050000;14.050000;10.150000
77516;PMS7003;68414;53.946;27.634;2023-04-08T13:46:21;15.116667;13.233334;10.033334
77516;PMS7003;68414;53.946;27.634;2023-04-08T13:47:21;14.400000;12.516666;9.800000
77516;PMS7003;68414;53.946;27.634;2023-04-08T13:48:21;15.250000;14.016666;9.450000
77516;PMS7003;68414;53.946;27.634;2023-04-08T13:49:21;14.133333;13.933333;9.683333
77516;PMS7003;68414;53.946;27.634;2023-04-08T13:50:21;14.116667;13.533334;9.483334
77516;PMS7003;68414;53.946;27.634;2023-04-08T13:51:21;15.233334;13.266666;9.683333
77516;PMS7003;68414;53.946;27.634;2023-04-08T13:52:21;14.233334;13.033334;9.883333
77516;PMS7003;68414;53.946;27.634;2023-04-08T13:53:21;12.366667;11.633333;9.216666
77516;PMS7003;68414;53.946;27.634;2023-04-08T13:54:21;14.200000;14.116667;10.116667
77516;PMS7003;68414;53.946;27.634;2023-04-08T13:55:21;17.616667;16.383333;11.400000
77516;PMS7003;68414;53.946;27.634;2023-04-08T13:56:21;17.950001;16.966667;11.300000
77516;PMS7003;68414;53.946;27.634;2023-04-08T13:57:21;15.833333;14.933333;11.600000
77516;PMS7003;68414;53.946;27.634;2023-04-08T13:58:21;19.000000;17.750000;12.400000
77516;PMS7003;68414;53.946;27.634;2023-04-08T13:59:21;18.066668;17.600000;12.300000
77516;PMS7003;68414;53.946;27.634;2023-04-08T14:00:21;17.916666;16.583334;12.166667
77516;PMS7003;68414;53.946;27.634;2023-04-08T14:01:21;21.350000;20.299999;14.333333
77516;PMS7003;68414;53.946;27.634;2023-04-08T14:02:21;19.816668;18.733334;14.083333
77516;PMS7003;68414;53.946;27.634;2023-04-08T14:03:21;18.350000;17.450001;12.833333
77516;PMS7003;68414;53.946;27.634;2023-04-08T14:04:21;19.150000;18.200001;12.733334
77516;PMS7003;68414;53.946;27.634;2023-04-08T14:05:21;21.016666;20.516666;14.550000
77516;PMS7003;68414;53.946;27.634;2023-04-08T14:06:21;22.216667;21.116667;13.466666
77516;PMS7003;68414;53.946;27.634;2023-04-08T14:07:21;23.483334;21.766666;14.400000
77516;PMS7003;68414;53.946;27.634;2023-04-08T14:08:21;20.916666;20.066668;14.633333
77516;PMS7003;68414;53.946;27.634;2023-04-08T14:09:21;23.783333;21.900000;14.916667
77516;PMS7003;68414;53.946;27.634;2023-04-08T14:10:21;22.166666;21.516666;14.183333
77516;PMS7003;68414;53.946;27.634;2023-04-08T14:11:21;20.366667;19.250000;13.616667
77516;PMS7003;68414;53.946;27.634;2023-04-08T14:12:21;21.900000;20.383333;14.033334
77516;PMS7003;68414;53.946;27.634;2023-04-08T14:13:21;19.566668;18.983334;12.833333
77516;PMS7003;68414;53.946;27.634;2023-04-08T14:14:21;20.583334;19.833334;12.933333
77516;PMS7003;68414;53.946;27.634;2023-04-08T14:15:21;22.283333;21.966667;14.700000
77516;PMS7003;68414;53.946;27.634;2023-04-08T14:16:21;21.883333;20.666666;13.750000
77516;PMS7003;68414;53.946;27.634;2023-04-08T14:17:21;20.066668;19.533333;13.983334
77516;PMS7003;68414;53.946;27.634;2023-04-08T14:18:21;19.716667;18.883333;13.516666
77516;PMS7003;68414;53.946;27.634;2023-04-08T14:19:21;21.133333;18.783333;13.416667
77516;PMS7003;68414;53.946;27.634;2023-04-08T14:20:21;19.200001;18.866667;13.650000
77516;PMS7003;68414;53.946;27.634;2023-04-08T14:21:21;21.250000;20.549999;13.716666
77516;PMS7003;68414;53.946;27.634;2023-04-08T14:22:21;21.583334;19.716667;13.800000
77516;PMS7003;68414;53.946;27.634;2023-04-08T14:23:21;23.883333;22.233334;15.350000
77516;PMS7003;68414;53.946;27.634;2023-04-08T14:24:21;19.733334;19.116667;14.016666
77516;PMS7003;68414;53.946;27.634;2023-04-08T14:25:21;21.400000;19.666666;14.300000
77516;PMS7003;68414;53.946;27.634;2023-04-08T14:26:21;20.533333;19.250000;13.700000
77516;PMS7003;68414;53.946;27.634;2023-04-08T14:27:21;17.766666;17.299999;12.883333
77516;PMS7003;68414;53.946;27.634;2023-04-08T14:28:21;21.333334;19.816668;13.616667
77516;PMS7003;68414;53.946;27.634;2023-04-08T14:29:21;19.316668;19.116667;13.616667
77516;PMS7003;68414;53.946;27.634;2023-04-08T14:30:21;21.350000;20.150000;14.483334
77516;PMS7003;68414;53.946;27.634;2023-04-08T14:31:21;20.816668;19.400000;13.633333
77516;PMS7003;68414;53.946;27.634;2023-04-08T14:32:21;20.933332;19.150000;14.116667
77516;PMS7003;68414;53.946;27.634;2023-04-08T14:33:21;19.666666;18.166666;13.300000
77516;PMS7003;68414;53.946;27.634;2023-04-08T14:34:22;21.900000;21.333334;14.166667
77516;PMS7003;68414;53.946;27.634;2023-04-08T14:35:21;20.250000;20.100000;13.566667
77516;PMS7003;68414;53.946;27.634;2023-04-08T14:36:21;22.116667;20.233334;14.283334
77516;PMS7003;68414;53.946;27.634;2023-04-08T14:37:21;19.683332;18.583334;12.933333
77516;PMS7003;68414;53.946;27.634;2023-04-08T14:38:21;19.933332;19.383333;13.966666
77516;PMS7003;68414;53.946;27.634;2023-04-08T14:39:21;19.650000;19.000000;13.466666
77516;PMS7003;68414;53.946;27.634;2023-04-08T14:40:21;19.916666;18.750000;13.866667
77516;PMS7003;68414;53.946;27.634;2023-04-08T14:41:21;17.383333;17.033333;13.466666
77516;PMS7003;68414;53.946;27.634;2023-04-08T14:42:21;20.700001;19.533333;14.250000
77516;PMS7003;68414;53.946;27.634;2023-04-08T14:43:21;22.266666;20.283333;14.333333
77516;PMS7003;68414;53.946;27.634;2023-04-08T14:44:21;20.783333;19.466667;14.066667
77516;PMS7003;68414;53.946;27.634;2023-04-08T14:45:21;19.083334;18.049999;12.550000
77516;PMS7003;68414;53.946;27.634;2023-04-08T14:46:21;21.566668;20.833334;13.983334
77516;PMS7003;68414;53.946;27.634;2023-04-08T14:47:21;22.233334;19.983334;14.116667
77516;PMS7003;68414;53.946;27.634;2023-04-08T14:48:21;21.450001;20.233334;15.050000
77516;PMS7003;68414;53.946;27.634;2023-04-08T14:49:21;19.966667;18.733334;13.233334
77516;PMS7003;68414;53.946;27.634;2023-04-08T14:50:21;21.683332;20.033333;13.716666
77516;PMS7003;68414;53.946;27.634;2023-04-08T14:51:21;20.666666;19.666666;13.650000
77516;PMS7003;68414;53.946;27.634;2023-04-08T14:52:21;19.133333;17.966667;12.566667
77516;PMS7003;68414;53.946;27.634;2023-04-08T14:53:21;21.333334;20.533333;13.833333
77516;PMS7003;68414;53.946;27.634;2023-04-08T14:54:21;19.000000;16.633333;12.550000
77516;PMS7003;68414;53.946;27.634;2023-04-08T14:55:21;22.266666;20.850000;14.416667
77516;PMS7003;68414;53.946;27.634;2023-04-08T14:56:21;22.133333;21.049999;15.333333
77516;PMS7003;68414;53.946;27.634;2023-04-08T14:57:21;23.233334;20.683332;14.966666
77516;PMS7003;68414;53.946;27.634;2023-04-08T14:58:21;21.383333;20.700001;14.733334
77516;PMS7003;68414;53.946;27.634;2023-04-08T14:59:21;21.666666;20.500000;14.583333
77516;PMS7003;68414;53.946;27.634;2023-04-08T15:00:21;21.549999;20.983334;14.700000
77516;PMS7003;68414;53.946;27.634;2023-04-08T15:01:21;23.183332;22.166666;15.550000
77516;PMS7003;68414;53.946;27.634;2023-04-08T15:02:21;21.100000;21.066668;14.733334
77516;PMS7003;68414;53.946;27.634;2023-04-08T15:03:21;21.250000;20.316668;14.150000
77516;PMS7003;68414;53.946;27.634;2023-04-08T15:04:21;20.016666;18.900000;13.366667
77516;PMS7003;68414;53.946;27.634;2023-04-08T15:05:21;19.900000;19.383333;13.866667
77516;PMS7003;68414;53.946;27.634;2023-04-08T15:06:21;21.516666;20.983334;14.783334
77516;PMS7003;68414;53.946;27.634;2023-04-08T15:07:21;20.600000;19.966667;14.216666
77516;PMS7003;68414;53.946;27.634;2023-04-08T15:08:21;22.016666;21.333334;15.033334
77516;PMS7003;68414;53.946;27.634;2023-04-08T15:09:21;23.166666;22.400000;15.800000
77516;PMS7003;68414;53.946;27.634;2023-04-08T15:10:21;22.916666;21.983334;15.416667
77516;PMS7003;68414;53.946;27.634;2023-04-08T15:11:21;21.266666;20.633333;13.800000
77516;PMS7003;68414;53.946;27.634;2023-04-08T15:12:21;19.883333;19.500000;13.933333
77516;PMS7003;68414;53.946;27.634;2023-04-08T15:13:21;21.916666;20.733334;15.033334
77516;PMS7003;68414;53.946;27.634;2023-04-08T15:14:21;20.633333;20.033333;14.483334
77516;PMS7003;68414;53.946;27.634;2023-04-08T15:15:21;24.000000;22.666666;15.933333
77516;PMS7003;68414;53.946;27.634;2023-04-08T15:16:21;26.716667;25.033333;17.316668
77516;PMS7003;68414;53.946;27.634;2023-04-08T15:17:21;25.666666;24.266666;16.533333
77516;PMS7003;68414;53.946;27.634;2023-04-08T15:18:21;23.200001;22.666666;15.833333
77516;PMS7003;68414;53.946;27.634;2023-04-08T15:19:21;23.416666;22.850000;16.600000
77516;PMS7003;68414;53.946;27.634;2023-04-08T15:20:21;22.200001;21.316668;15.233334
77516;PMS7003;68414;53.946;27.634;2023-04-08T15:21:21;24.183332;22.083334;15.650000
77516;PMS7003;68414;53.946;27.634;2023-04-08T15:22:21;20.799999;19.516666;14.366667
77516;PMS7003;68414;53.946;27.634;2023-04-08T15:23:21;19.799999;19.750000;14.550000
77516;PMS7003;68414;53.946;27.634;2023-04-08T15:24:21;25.350000;23.333334;15.366667
77516;PMS7003;68414;53.946;27.634;2023-04-08T15:25:21;23.583334;21.200001;15.450000
77516;PMS7003;68414;53.946;27.634;2023-04-08T15:26:21;22.200001;20.750000;15.250000
77516;PMS7003;68414;53.946;27.634;2023-04-08T15:27:21;23.000000;21.150000;14.450000
77516;PMS7003;68414;53.946;27.634;2023-04-08T15:28:21;23.133333;21.433332;15.500000
77516;PMS7003;68414;53.946;27.634;2023-04-08T15:29:21;21.466667;20.533333;14.816667
77516;PMS7003;68414;53.946;27.634;2023-04-08T15:30:21;20.433332;19.700001;14.100000
77516;PMS7003;68414;53.946;27.634;2023-04-08T15:31:21;21.150000;19.416666;14.016666
77516;PMS7003;68414;53.946;27.634;2023-04-08T15:32:21;20.250000;20.033333;13.950000
77516;PMS7003;68414;53.946;27.634;2023-04-08T15:33:21;21.100000;20.266666;15.250000
77516;PMS7003;68414;53.946;27.634;2023-04-08T15:34:21;20.866667;20.216667;14.500000
77516;PMS7003;68414;53.946;27.634;2023-04-08T15:35:21;22.600000;20.883333;15.033334
77516;PMS7003;68414;53.946;27.634;2023-04-08T15:36:21;23.116667;22.666666;15.166667
77516;PMS7003;68414;53.946;27.634;2023-04-08T15:37:21;22.133333;21.566668;13.933333
77516;PMS7003;68414;53.946;27.634;2023-04-08T15:38:21;19.799999;18.783333;14.233334
77516;PMS7003;68414;53.946;27.634;2023-04-08T15:39:21;18.733334;18.316668;13.066667
77516;PMS7003;68414;53.946;27.634;2023-04-08T15:40:21;19.583334;19.033333;13.200000
77516;PMS7003;68414;53.946;27.634;2023-04-08T15:41:21;21.200001;20.533333;13.916667
77516;PMS7003;68414;53.946;27.634;2023-04-08T15:42:21;21.000000;20.066668;14.300000
77516;PMS7003;68414;53.946;27.634;2023-04-08T15:43:21;21.283333;20.483334;15.266666
77516;PMS7003;68414;53.946;27.634;2023-04-08T15:44:21;23.616667;21.616667;15.250000
77516;PMS7003;68414;53.946;27.634;2023-04-08T15:45:21;22.016666;20.299999;15.266666
77516;PMS7003;68414;53.946;27.634;2023-04-08T15:46:21;20.566668;20.116667;14.600000
77516;PMS7003;68414;53.946;27.634;2023-04-08T15:47:21;22.016666;21.116667;14.883333
77516;PMS7003;68414;53.946;27.634;2023-04-08T15:48:21;24.400000;22.933332;15.700000
77516;PMS7003;68414;53.946;27.634;2023-04-08T15:49:21;21.100000;20.600000;14.783334
77516;PMS7003;68414;53.946;27.634;2023-04-08T15:50:21;20.916666;19.933332;13.866667
77516;PMS7003;68414;53.946;27.634;2023-04-08T15:51:21;23.733334;22.650000;15.850000
77516;PMS7003;68414;53.946;27.634;2023-04-08T15:52:21;22.299999;20.883333;14.633333
77516;PMS7003;68414;53.946;27.634;2023-04-08T15:53:21;21.533333;20.450001;14.483334
77516;PMS7003;68414;53.946;27.634;2023-04-08T15:54:21;22.816668;22.733334;15.666667
77516;PMS7003;68414;53.946;27.634;2023-04-08T15:55:21;23.583334;22.816668;15.650000
77516;PMS7003;68414;53.946;27.634;2023-04-08T15:56:21;24.400000;22.650000;16.116667
77516;PMS7003;68414;53.946;27.634;2023-04-08T15:57:21;23.150000;21.416666;15.116667
77516;PMS7003;68414;53.946;27.634;2023-04-08T15:58:21;21.950001;21.750000;15.233334
77516;PMS7003;68414;53.946;27.634;2023-04-08T15:59:21;24.533333;23.633333;16.299999
77516;PMS7003;68414;53.946;27.634;2023-04-08T16:00:21;23.633333;22.266666;14.700000
77516;PMS7003;68414;53.946;27.634;2023-04-08T16:01:21;23.416666;22.483334;15.866667
77516;PMS7003;68414;53.946;27.634;2023-04-08T16:02:21;23.066668;21.883333;15.750000
77516;PMS7003;68414;53.946;27.634;2023-04-08T16:03:21;22.000000;21.116667;14.666667
77516;PMS7003;68414;53.946;27.634;2023-04-08T16:04:21;21.066668;19.883333;14.316667
77516;PMS7003;68414;53.946;27.634;2023-04-08T16:05:21;19.983334;19.333334;14.083333
77516;PMS7003;68414;53.946;27.634;2023-04-08T16:06:21;20.866667;19.700001;13.816667
77516;PMS7003;68414;53.946;27.634;2023-04-08T16:07:21;21.666666;20.366667;14.133333
77516;PMS7003;68414;53.946;27.634;2023-04-08T16:08:21;23.016666;21.666666;14.350000
77516;PMS7003;68414;53.946;27.634;2023-04-08T16:09:21;23.350000;22.166666;14.633333
77516;PMS7003;68414;53.946;27.634;2023-04-08T16:10:21;20.233334;20.100000;14.700000
77516;PMS7003;68414;53.946;27.634;2023-04-08T16:11:21;24.049999;22.966667;15.100000
77516;PMS7003;68414;53.946;27.634;2023-04-08T16:12:21;23.366667;21.799999;15.816667
77516;PMS7003;68414;53.946;27.634;2023-04-08T16:13:21;23.316668;22.299999;14.900000
77516;PMS7003;68414;53.946;27.634;2023-04-08T16:14:21;23.366667;23.033333;15.633333
77516;PMS7003;68414;53.946;27.634;2023-04-08T16:15:21;19.549999;18.900000;14.233334
77516;PMS7003;68414;53.946;27.634;2023-04-08T16:16:21;20.750000;19.783333;13.983334
77516;PMS7003;68414;53.946;27.634;2023-04-08T16:17:21;18.483334;17.600000;12.766666
77516;PMS7003;68414;53.946;27.634;2023-04-08T16:18:21;20.283333;18.666666;12.900000
77516;PMS7003;68414;53.946;27.634;2023-04-08T16:19:21;21.000000;20.450001;13.800000
77516;PMS7003;68414;53.946;27.634;2023-04-08T16:20:21;20.400000;19.633333;13.816667
77516;PMS7003;68414;53.946;27.634;2023-04-08T16:21:21;20.650000;19.600000;13.433333
77516;PMS7003;68414;53.946;27.634;2023-04-08T16:22:21;18.250000;17.950001;13.266666
77516;PMS7003;68414;53.946;27.634;2023-04-08T16:23:21;20.250000;19.633333;13.683333
77516;PMS7003;68414;53.946;27.634;2023-04-08T16:24:21;18.866667;18.066668;12.916667
77516;PMS7003;68414;53.946;27.634;2023-04-08T16:25:21;20.799999;20.116667;14.100000
77516;PMS7003;68414;53.946;27.634;2023-04-08T16:26:21;24.000000;22.750000;16.066668
77516;PMS7003;68414;53.946;27.634;2023-04-08T16:27:21;21.250000;20.283333;14.566667
77516;PMS7003;68414;53.946;27.634;2023-04-08T16:28:21;22.200001;21.200001;14.783334
77516;PMS7003;68414;53.946;27.634;2023-04-08T16:29:20;19.383333;19.166666;13.750000
77516;PMS7003;68414;53.946;27.634;2023-04-08T16:30:21;20.933332;19.533333;14.083333
77516;PMS7003;68414;53.946;27.634;2023-04-08T16:31:20;19.049999;18.683332;13.283334
77516;PMS7003;68414;53.946;27.634;2023-04-08T16:32:21;19.366667;18.883333;13.833333
77516;PMS7003;68414;53.946;27.634;2023-04-08T16:33:21;22.049999;21.316668;14.066667
77516;PMS7003;68414;53.946;27.634;2023-04-08T16:34:21;21.150000;19.983334;14.666667
77516;PMS7003;68414;53.946;27.634;2023-04-08T16:35:21;19.583334;19.466667;14.083333
77516;PMS7003;68414;53.946;27.634;2023-04-08T16:36:21;21.700001;19.766666;14.300000
77516;PMS7003;68414;53.946;27.634;2023-04-08T16:37:21;20.583334;20.033333;14.466666
77516;PMS7003;68414;53.946;27.634;2023-04-08T16:38:21;20.450001;18.983334;13.533334
77516;PMS7003;68414;53.946;27.634;2023-04-08T16:39:21;21.700001;20.350000;13.700000
77516;PMS7003;68414;53.946;27.634;2023-04-08T16:40:21;22.400000;20.183332;13.983334
77516;PMS7003;68414;53.946;27.634;2023-04-08T16:41:21;19.516666;18.200001;14.050000
77516;PMS7003;68414;53.946;27.634;2023-04-08T16:42:21;21.150000;18.933332;14.700000
77516;PMS7003;68414;53.946;27.634;2023-04-08T16:43:21;22.133333;20.216667;14.983334
77516;PMS7003;68414;53.946;27.634;2023-04-08T16:44:21;19.650000;18.600000;13.766666
77516;PMS7003;68414;53.946;27.634;2023-04-08T16:45:21;21.633333;20.600000;15.000000
77516;PMS7003;68414;53.946;27.634;2023-04-08T16:46:21;22.483334;21.683332;15.333333
77516;PMS7003;68414;53.946;27.634;2023-04-08T16:47:21;20.433332;19.200001;14.100000
77516;PMS7003;68414;53.946;27.634;2023-04-08T16:48:21;21.500000;20.416666;14.416667
77516;PMS7003;68414;53.946;27.634;2023-04-08T16:49:20;20.883333;19.633333;15.250000
77516;PMS7003;68414;53.946;27.634;2023-04-08T16:50:20;21.683332;19.916666;14.400000
77516;PMS7003;68414;53.946;27.634;2023-04-08T16:51:21;20.816668;19.366667;14.083333
77516;PMS7003;68414;53.946;27.634;2023-04-08T16:53:20;22.183332;21.066668;15.450000
77516;PMS7003;68414;53.946;27.634;2023-04-08T16:54:21;20.816668;20.033333;14.016666
77516;PMS7003;68414;53.946;27.634;2023-04-08T16:55:21;19.616667;18.766666;14.583333
77516;PMS7003;68414;53.946;27.634;2023-04-08T16:56:20;21.416666;20.450001;14.050000
77516;PMS7003;68414;53.946;27.634;2023-04-08T16:57:20;21.216667;18.866667;14.016666
77516;PMS7003;68414;53.946;27.634;2023-04-08T16:58:20;22.083334;20.700001;15.550000
77516;PMS7003;68414;53.946;27.634;2023-04-08T16:59:20;23.016666;22.133333;14.683333
77516;PMS7003;68414;53.946;27.634;2023-04-08T17:00:21;22.416666;21.600000;15.166667
77516;PMS7003;68414;53.946;27.634;2023-04-08T17:01:21;24.133333;21.549999;14.983334
77516;PMS7003;68414;53.946;27.634;2023-04-08T17:02:21;20.500000;20.233334;15.083333
77516;PMS7003;68414;53.946;27.634;2023-04-08T17:03:20;20.183332;18.933332;14.216666
77516;PMS7003;68414;53.946;27.634;2023-04-08T17:04:20;21.383333;19.700001;14.316667
77516;PMS7003;68414;53.946;27.634;2023-04-08T17:05:21;22.083334;20.066668;14.333333
77516;PMS7003;68414;53.946;27.634;2023-04-08T17:06:20;23.100000;21.516666;14.383333
77516;PMS7003;68414;53.946;27.634;2023-04-08T17:07:20;22.383333;21.533333;14.883333
77516;PMS7003;68414;53.946;27.634;2023-04-08T17:08:20;20.616667;19.350000;14.550000
77516;PMS7003;68414;53.946;27.634;2023-04-08T17:09:20;23.200001;21.666666;15.150000
77516;PMS7003;68414;53.946;27.634;2023-04-08T17:10:22;26.233334;23.950001;16.233334
77516;PMS7003;68414;53.946;27.634;2023-04-08T17:11:20;23.716667;22.883333;16.900000
77516;PMS7003;68414;53.946;27.634;2023-04-08T17:12:21;24.100000;23.600000;16.116667
77516;PMS7003;68414;53.946;27.634;2023-04-08T17:13:20;24.900000;22.750000;16.066668
77516;PMS7003;68414;53.946;27.634;2023-04-08T17:14:20;23.633333;22.266666;15.166667
77516;PMS7003;68414;53.946;27.634;2023-04-08T17:15:20;21.733334;19.700001;14.583333
77516;PMS7003;68414;53.946;27.634;2023-04-08T17:16:20;21.483334;20.850000;15.266666
77516;PMS7003;68414;53.946;27.634;2023-04-08T17:17:20;23.483334;23.000000;16.966667
77516;PMS7003;68414;53.946;27.634;2023-04-08T17:18:20;24.533333;23.733334;16.683332
77516;PMS7003;68414;53.946;27.634;2023-04-08T17:19:20;24.283333;22.916666;15.783334
77516;PMS7003;68414;53.946;27.634;2023-04-08T17:20:20;25.616667;23.083334;15.033334
77516;PMS7003;68414;53.946;27.634;2023-04-08T17:21:20;26.133333;24.900000;16.500000
77516;PMS7003;68414;53.946;27.634;2023-04-08T17:22:21;23.966667;23.350000;16.200001
77516;PMS7003;68414;53.946;27.634;2023-04-08T17:23:21;24.450001;23.500000;16.666666
77516;PMS7003;68414;53.946;27.634;2023-04-08T17:24:20;23.316668;23.316668;16.100000
77516;PMS7003;68414;53.946;27.634;2023-04-08T17:25:20;24.033333;22.916666;16.066668
77516;PMS7003;68414;53.946;27.634;2023-04-08T17:26:20;24.616667;23.683332;15.600000
77516;PMS7003;68414;53.946;27.634;2023-04-08T17:27:21;23.049999;21.583334;16.049999
77516;PMS7003;68414;53.946;27.634;2023-04-08T17:28:20;26.000000;23.483334;16.350000
77516;PMS7003;68414;53.946;27.634;2023-04-08T17:29:21;23.466667;22.666666;15.483334
77516;PMS7003;68414;53.946;27.634;2023-04-08T17:30:21;23.866667;23.616667;15.983334
77516;PMS7003;68414;53.946;27.634;2023-04-08T17:31:20;24.983334;24.716667;17.333334
77516;PMS7003;68414;53.946;27.634;2023-04-08T17:32:21;24.900000;22.683332;15.900000
77516;PMS7003;68414;53.946;27.634;2023-04-08T17:33:21;22.900000;21.400000;15.583333
77516;PMS7003;68414;53.946;27.634;2023-04-08T17:34:20;22.900000;21.983334;14.316667
77516;PMS7003;68414;53.946;27.634;2023-04-08T17:35:21;26.633333;24.983334;16.983334
77516;PMS7003;68414;53.946;27.634;2023-04-08T17:36:20;28.200001;26.066668;17.766666
77516;PMS7003;68414;53.946;27.634;2023-04-08T17:37:21;23.750000;22.416666;15.700000
77516;PMS7003;68414;53.946;27.634;2023-04-08T17:38:21;23.650000;22.983334;15.783334
77516;PMS7003;68414;53.946;27.634;2023-04-08T17:39:20;24.816668;23.450001;16.700001
77516;PMS7003;68414;53.946;27.634;2023-04-08T17:40:20;24.850000;23.950001;17.083334
77516;PMS7003;68414;53.946;27.634;2023-04-08T17:41:21;28.350000;26.383333;18.433332
77516;PMS7003;68414;53.946;27.634;2023-04-08T17:42:21;27.133333;25.633333;18.183332
77516;PMS7003;68414;53.946;27.634;2023-04-08T17:43:20;27.500000;26.266666;18.483334
77516;PMS7003;68414;53.946;27.634;2023-04-08T17:44:20;29.533333;28.166666;19.250000
77516;PMS7003;68414;53.946;27.634;2023-04-08T17:45:22;25.716667;24.600000;16.533333
77516;PMS7003;68414;53.946;27.634;2023-04-08T17:46:21;27.433332;26.183332;18.183332
77516;PMS7003;68414;53.946;27.634;2023-04-08T17:47:20;25.766666;24.783333;16.416666
77516;PMS7003;68414;53.946;27.634;2023-04-08T17:48:20;25.700001;23.666666;16.000000